createdAt,value
2018-12-20T00:00:33.744Z,93.94
2018-12-20T00:03:01.891Z,93.99
2018-12-20T00:05:29.969Z,93.80
2018-12-20T00:07:58.468Z,93.56
2018-12-20T00:10:28.075Z,93.49
2018-12-20T00:12:56.121Z,93.97
2018-12-20T00:15:24.258Z,93.90
2018-12-20T00:17:53.088Z,93.70
2018-12-20T00:20:21.752Z,93.77
2018-12-20T00:22:49.749Z,93.67
2018-12-20T00:25:17.744Z,93.55
2018-12-20T00:27:45.749Z,93.29
2018-12-20T00:30:14.682Z,92.83
2018-12-20T00:32:42.803Z,93.07
2018-12-20T00:35:10.874Z,93.66
2018-12-20T00:37:39.627Z,93.67
2018-12-20T00:40:07.867Z,93.74
2018-12-20T00:42:35.923Z,93.79
2018-12-20T00:45:04.236Z,93.48
2018-12-20T00:47:32.954Z,93.05
2018-12-20T00:50:00.933Z,92.81
2018-12-20T00:52:29.110Z,92.84
2018-12-20T00:54:57.565Z,93.24
2018-12-20T00:57:25.529Z,93.53
2018-12-20T00:59:53.720Z,93.38
2018-12-20T01:02:21.801Z,93.40
2018-12-20T01:04:49.781Z,93.45
2018-12-20T01:07:17.743Z,93.90
2018-12-20T01:09:45.715Z,93.81
2018-12-20T01:12:13.823Z,93.99
2018-12-20T01:14:45.382Z,93.83
2018-12-20T01:17:11.976Z,93.48
2018-12-20T01:19:40.546Z,93.03
2018-12-20T01:22:08.601Z,93.13
2018-12-20T01:24:36.585Z,92.71
2018-12-20T01:27:04.633Z,92.83
2018-12-20T01:29:32.760Z,92.86
2018-12-20T01:32:01.420Z,92.89
2018-12-20T01:34:29.538Z,92.83
2018-12-20T01:36:57.606Z,92.39
2018-12-20T01:39:25.662Z,92.31
2018-12-20T01:41:53.687Z,92.73
2018-12-20T01:44:21.739Z,92.47
2018-12-20T01:46:50.022Z,92.41
2018-12-20T01:49:18.200Z,93.13
2018-12-20T01:51:46.276Z,93.26
2018-12-20T01:54:14.365Z,93.16
2018-12-20T01:56:42.418Z,93.32
2018-12-20T01:59:10.556Z,93.25
2018-12-20T02:01:38.624Z,93.49
2018-12-20T02:04:06.829Z,94.05
2018-12-20T02:06:35.314Z,94.25
2018-12-20T02:09:06.778Z,93.82
2018-12-20T02:11:34.883Z,94.77
2018-12-20T02:14:03.137Z,94.41
2018-12-20T02:16:31.204Z,94.54
2018-12-20T02:18:59.249Z,94.67
2018-12-20T02:21:27.536Z,94.44
2018-12-20T02:23:55.623Z,94.57
2018-12-20T02:26:23.622Z,94.96
2018-12-20T02:28:51.627Z,95.21
2018-12-20T02:31:19.726Z,95.28
2018-12-20T02:33:47.702Z,95.11
2018-12-20T02:36:15.679Z,94.89
2018-12-20T02:38:43.741Z,95.09
2018-12-20T02:41:12.864Z,95.03
2018-12-20T02:43:41.189Z,94.93
2018-12-20T02:46:09.326Z,94.73
2018-12-20T02:48:37.601Z,95.06
2018-12-20T02:51:05.710Z,94.72
2018-12-20T02:53:33.759Z,95.07
2018-12-20T02:56:01.817Z,95.18
2018-12-20T02:58:31.044Z,95.25
2018-12-20T03:01:00.097Z,95.54
2018-12-20T03:03:28.390Z,95.45
2018-12-20T03:05:56.465Z,95.47
2018-12-20T03:08:24.474Z,95.42
2018-12-20T03:10:52.411Z,95.06
2018-12-20T03:13:21.187Z,94.78
2018-12-20T03:15:49.228Z,95.53
2018-12-20T03:18:17.571Z,95.27
2018-12-20T03:20:45.561Z,95.10
2018-12-20T03:23:13.704Z,95.17
2018-12-20T03:25:41.783Z,95.12
2018-12-20T03:28:10.068Z,95.11
2018-12-20T03:30:38.880Z,95.45
2018-12-20T03:33:10.479Z,95.61
2018-12-20T03:35:39.026Z,95.21
2018-12-20T03:38:08.483Z,94.99
2018-12-20T03:40:36.472Z,95.04
2018-12-20T03:43:04.670Z,94.76
2018-12-20T03:45:32.987Z,94.66
2018-12-20T03:48:02.467Z,94.90
2018-12-20T03:50:30.426Z,95.00
2018-12-20T03:52:58.524Z,94.96
2018-12-20T03:55:27.349Z,94.71
2018-12-20T03:57:56.132Z,94.49
2018-12-20T04:00:25.162Z,95.08
2018-12-20T04:02:53.299Z,95.09
2018-12-20T04:05:21.396Z,95.45
2018-12-20T04:07:49.513Z,95.51
2018-12-20T04:10:17.769Z,95.12
2018-12-20T04:12:46.410Z,94.67
2018-12-20T04:15:14.435Z,95.22
2018-12-20T04:17:42.443Z,95.61
2018-12-20T04:20:10.762Z,95.56
2018-12-20T04:22:38.999Z,95.70
2018-12-20T04:25:07.202Z,95.70
2018-12-20T04:27:37.200Z,95.47
2018-12-20T04:30:06.172Z,95.80
2018-12-20T04:32:35.074Z,95.80
2018-12-20T04:35:03.311Z,95.86
2018-12-20T04:37:31.250Z,95.92
2018-12-20T04:39:59.264Z,95.74
2018-12-20T04:42:27.258Z,95.93
2018-12-20T04:44:55.267Z,95.99
2018-12-20T04:47:23.275Z,96.21
2018-12-20T04:49:51.274Z,96.21
2018-12-20T04:52:19.287Z,96.08
2018-12-20T04:54:47.817Z,96.07
2018-12-20T04:57:16.143Z,95.98
2018-12-20T04:59:44.315Z,96.40
2018-12-20T05:02:13.095Z,96.47
2018-12-20T05:04:41.123Z,96.42
2018-12-20T05:07:09.094Z,96.33
2018-12-20T05:09:37.233Z,96.09
2018-12-20T05:12:05.304Z,96.23
2018-12-20T05:14:33.602Z,96.22
2018-12-20T05:17:01.995Z,96.10
2018-12-20T05:19:30.103Z,96.09
2018-12-20T05:21:58.380Z,96.00
2018-12-20T05:24:26.648Z,95.87
2018-12-20T05:26:55.481Z,95.96
2018-12-20T05:29:23.627Z,96.32
2018-12-20T05:31:51.582Z,96.40
2018-12-20T05:34:19.608Z,96.22
2018-12-20T05:36:47.752Z,96.47
2018-12-20T05:39:15.978Z,96.15
2018-12-20T05:41:43.977Z,95.95
2018-12-20T05:44:12.065Z,96.38
2018-12-20T05:46:40.552Z,96.10
2018-12-20T05:49:08.735Z,96.00
2018-12-20T05:51:36.941Z,95.98
2018-12-20T05:54:05.229Z,96.12
2018-12-20T05:56:33.396Z,96.36
2018-12-20T05:59:01.423Z,96.52
2018-12-20T06:01:29.489Z,96.52
2018-12-20T06:03:57.619Z,96.41
2018-12-20T06:06:25.634Z,96.58
2018-12-20T06:08:54.177Z,96.93
2018-12-20T06:11:22.429Z,96.96
2018-12-20T06:13:50.491Z,96.86
2018-12-20T06:16:18.627Z,96.62
2018-12-20T06:18:46.798Z,96.75
2018-12-20T06:21:14.901Z,96.41
2018-12-20T06:23:42.873Z,96.69
2018-12-20T06:26:10.836Z,96.96
2018-12-20T06:28:38.819Z,96.79
2018-12-20T06:31:06.807Z,96.68
2018-12-20T06:33:34.770Z,96.66
2018-12-20T06:36:03.482Z,96.86
2018-12-20T06:38:31.518Z,96.86
2018-12-20T06:40:59.482Z,96.70
2018-12-20T06:43:27.456Z,96.43
2018-12-20T06:45:55.473Z,95.99
2018-12-20T06:48:23.450Z,96.05
2018-12-20T06:50:51.414Z,96.49
2018-12-20T06:53:19.391Z,96.42
2018-12-20T06:55:47.696Z,96.35
2018-12-20T06:58:15.694Z,96.25
2018-12-20T07:00:44.426Z,96.21
2018-12-20T07:03:12.502Z,96.35
2018-12-20T07:05:40.470Z,96.24
2018-12-20T07:08:08.414Z,95.92
2018-12-20T07:10:37.095Z,95.77
2018-12-20T07:13:05.454Z,96.25
2018-12-20T07:15:34.071Z,96.36
2018-12-20T07:18:02.031Z,96.54
2018-12-20T07:20:30.129Z,96.55
2018-12-20T07:22:58.121Z,96.39
2018-12-20T07:25:26.171Z,96.42
2018-12-20T07:27:54.863Z,96.27
2018-12-20T07:30:22.852Z,96.37
2018-12-20T07:32:50.875Z,96.74
2018-12-20T07:35:18.921Z,96.92
2018-12-20T07:37:46.946Z,96.86
2018-12-20T07:40:14.964Z,96.92
2018-12-20T07:42:43.037Z,96.78
2018-12-20T07:45:11.670Z,96.95
2018-12-20T07:47:40.766Z,96.70
2018-12-20T07:50:08.795Z,96.31
2018-12-20T07:52:36.783Z,96.02
2018-12-20T07:55:04.950Z,96.24
2018-12-20T07:57:33.085Z,96.45
2018-12-20T08:00:01.095Z,96.42
2018-12-20T08:02:29.484Z,96.44
2018-12-20T08:04:57.522Z,96.17
2018-12-20T08:07:25.530Z,96.20
2018-12-20T08:09:53.484Z,95.80
2018-12-20T08:12:21.527Z,95.63
2018-12-20T08:14:49.497Z,95.11
2018-12-20T08:17:17.445Z,95.21
2018-12-20T08:19:45.468Z,95.38
2018-12-20T08:22:13.457Z,95.31
2018-12-20T08:24:42.024Z,95.02
2018-12-20T08:27:09.992Z,95.41
2018-12-20T08:29:37.962Z,94.95
2018-12-20T08:32:06.010Z,95.57
2018-12-20T08:34:33.974Z,95.92
2018-12-20T08:37:01.974Z,96.23
2018-12-20T08:39:29.923Z,96.06
2018-12-20T08:41:57.921Z,95.72
2018-12-20T08:44:26.730Z,95.95
2018-12-20T08:46:54.800Z,95.80
2018-12-20T08:49:23.624Z,95.60
2018-12-20T08:51:51.615Z,95.35
2018-12-20T08:54:19.662Z,95.23
2018-12-20T08:56:47.826Z,95.50
2018-12-20T08:59:15.835Z,95.33
2018-12-20T09:01:43.821Z,95.40
2018-12-20T09:04:11.762Z,95.25
2018-12-20T09:06:40.352Z,95.01
2018-12-20T09:09:08.349Z,95.17
2018-12-20T09:11:36.458Z,95.28
2018-12-20T09:14:04.488Z,94.84
2018-12-20T09:16:32.446Z,94.96
2018-12-20T09:19:00.437Z,95.22
2018-12-20T09:21:28.716Z,95.02
2018-12-20T09:23:56.734Z,95.21
2018-12-20T09:26:24.810Z,95.07
2018-12-20T09:28:53.353Z,95.05
2018-12-20T09:31:21.369Z,94.21
2018-12-20T09:33:49.369Z,94.61
2018-12-20T09:36:17.318Z,94.45
2018-12-20T09:38:45.279Z,94.20
2018-12-20T09:41:13.746Z,94.62
2018-12-20T09:43:41.738Z,94.29
2018-12-20T09:46:09.764Z,94.01
2018-12-20T09:48:37.756Z,93.46
2018-12-20T09:51:05.793Z,93.77
2018-12-20T09:53:34.903Z,93.66
2018-12-20T09:56:02.921Z,93.99
2018-12-20T09:58:30.912Z,93.79
2018-12-20T10:00:58.878Z,93.78
2018-12-20T10:03:26.950Z,94.07
2018-12-20T10:05:54.938Z,94.21
2018-12-20T10:08:22.892Z,94.25
2018-12-20T10:10:50.883Z,94.19
2018-12-20T10:13:18.882Z,94.33
2018-12-20T10:15:46.858Z,94.20
2018-12-20T10:18:14.852Z,94.36
2018-12-20T10:20:42.809Z,94.22
2018-12-20T10:23:10.797Z,94.58
2018-12-20T10:25:38.758Z,94.91
2018-12-20T10:28:06.753Z,95.13
2018-12-20T10:30:34.720Z,95.24
2018-12-20T10:33:03.262Z,95.28
2018-12-20T10:35:31.245Z,95.05
2018-12-20T10:37:59.387Z,95.57
2018-12-20T10:40:27.350Z,95.70
2018-12-20T10:42:55.300Z,95.71
2018-12-20T10:45:23.431Z,95.67
2018-12-20T10:47:51.401Z,95.94
2018-12-20T10:50:19.405Z,95.81
2018-12-20T10:52:48.151Z,95.68
2018-12-20T10:55:16.232Z,95.70
2018-12-20T10:57:44.565Z,95.67
2018-12-20T11:00:12.613Z,95.73
2018-12-20T11:02:46.241Z,95.37
2018-12-20T11:05:19.831Z,95.41
2018-12-20T11:07:54.355Z,94.93
2018-12-20T11:10:26.222Z,95.01
2018-12-20T11:12:54.223Z,94.93
2018-12-20T11:15:23.039Z,95.18
2018-12-20T11:17:51.639Z,94.71
2018-12-20T11:20:20.557Z,94.88
2018-12-20T11:22:48.616Z,94.86
2018-12-20T11:25:16.884Z,94.29
2018-12-20T11:27:44.953Z,94.16
2018-12-20T11:30:12.909Z,94.47
2018-12-20T11:32:40.943Z,94.54
2018-12-20T11:35:08.915Z,94.41
2018-12-20T11:37:36.876Z,94.39
2018-12-20T11:40:05.128Z,94.02
2018-12-20T11:42:33.135Z,93.57
2018-12-20T11:45:01.110Z,93.73
2018-12-20T11:47:29.149Z,93.98
2018-12-20T11:49:57.098Z,94.05
2018-12-20T11:52:25.079Z,94.03
2018-12-20T11:54:54.344Z,94.06
2018-12-20T11:57:22.481Z,93.82
2018-12-20T11:59:50.506Z,94.10
2018-12-20T12:02:24.384Z,95.01
2018-12-20T12:04:49.054Z,94.48
2018-12-20T12:07:17.500Z,94.27
2018-12-20T12:09:45.714Z,94.43
2018-12-20T12:12:14.501Z,94.41
2018-12-20T12:14:42.799Z,94.58
2018-12-20T12:17:10.796Z,94.11
2018-12-20T12:19:39.749Z,94.41
2018-12-20T12:22:07.737Z,94.30
2018-12-20T12:24:35.700Z,94.03
2018-12-20T12:27:03.692Z,93.93
2018-12-20T12:29:32.381Z,94.04
2018-12-20T12:32:01.170Z,94.36
2018-12-20T12:34:29.509Z,94.15
2018-12-20T12:36:57.496Z,94.64
2018-12-20T12:39:25.569Z,94.85
2018-12-20T12:41:53.630Z,94.62
2018-12-20T12:44:22.124Z,94.59
2018-12-20T12:46:50.086Z,94.53
2018-12-20T12:49:18.093Z,94.64
2018-12-20T12:51:52.939Z,94.48
2018-12-20T12:54:16.141Z,94.70
2018-12-20T12:56:44.102Z,94.35
2018-12-20T12:59:12.471Z,94.47
2018-12-20T13:01:40.511Z,94.31
2018-12-20T13:04:08.575Z,94.06
2018-12-20T13:06:36.726Z,93.87
2018-12-20T13:09:05.824Z,94.18
2018-12-20T13:11:33.836Z,94.19
2018-12-20T13:14:01.883Z,94.27
2018-12-20T13:16:31.575Z,94.05
2018-12-20T13:19:00.173Z,93.58
2018-12-20T13:21:28.124Z,94.06
2018-12-20T13:23:56.131Z,94.28
2018-12-20T13:26:24.068Z,94.02
2018-12-20T13:28:52.073Z,93.98
2018-12-20T13:31:20.043Z,93.58
2018-12-20T13:33:48.060Z,93.79
2018-12-20T13:36:16.390Z,94.34
2018-12-20T13:38:44.426Z,94.39
2018-12-20T13:41:12.410Z,94.76
2018-12-20T13:43:40.355Z,94.57
2018-12-20T13:46:08.324Z,94.15
2018-12-20T13:48:36.288Z,94.04
2018-12-20T13:51:04.291Z,93.54
2018-12-20T13:53:32.263Z,93.35
2018-12-20T13:56:00.238Z,93.28
2018-12-20T13:58:28.228Z,93.74
2018-12-20T14:00:56.226Z,94.06
2018-12-20T14:03:24.220Z,94.30
2018-12-20T14:05:52.221Z,94.31
2018-12-20T14:08:20.189Z,93.91
2018-12-20T14:10:48.148Z,94.14
2018-12-20T14:13:16.119Z,93.89
2018-12-20T14:15:44.092Z,93.55
2018-12-20T14:18:12.028Z,93.93
2018-12-20T14:20:39.986Z,93.49
2018-12-20T14:23:07.957Z,93.54
2018-12-20T14:25:35.994Z,93.45
2018-12-20T14:28:03.941Z,93.36
2018-12-20T14:30:31.914Z,93.76
2018-12-20T14:33:00.006Z,93.96
2018-12-20T14:35:27.951Z,94.66
2018-12-20T14:37:55.973Z,93.75
2018-12-20T14:40:24.014Z,93.98
2018-12-20T14:42:52.526Z,94.01
2018-12-20T14:45:20.493Z,93.98
2018-12-20T14:47:48.476Z,94.36
2018-12-20T14:50:16.462Z,94.32
2018-12-20T14:52:44.451Z,94.09
2018-12-20T14:55:12.510Z,94.03
2018-12-20T14:57:40.470Z,94.41
2018-12-20T15:00:10.488Z,94.56
2018-12-20T15:02:38.552Z,95.02
2018-12-20T15:05:06.890Z,95.11
2018-12-20T15:07:34.845Z,96.14
2018-12-20T15:10:03.988Z,94.26
2018-12-20T15:12:31.973Z,93.18
2018-12-20T15:14:59.971Z,92.37
2018-12-20T15:17:27.965Z,91.30
2018-12-20T15:19:55.955Z,90.70
2018-12-20T15:22:23.993Z,89.76
2018-12-20T15:24:51.981Z,89.82
2018-12-20T15:27:19.951Z,89.97
2018-12-20T15:29:47.926Z,89.52
2018-12-20T15:32:15.894Z,88.65
2018-12-20T15:34:43.995Z,88.62
2018-12-20T15:37:11.948Z,88.70
2018-12-20T15:39:40.790Z,88.82
2018-12-20T15:42:08.820Z,89.16
2018-12-20T15:44:36.777Z,89.84
2018-12-20T15:47:04.787Z,90.87
2018-12-20T15:49:32.797Z,91.29
2018-12-20T15:52:00.848Z,91.61
2018-12-20T15:54:28.817Z,92.12
2018-12-20T15:56:56.833Z,92.59
2018-12-20T15:59:24.750Z,93.30
2018-12-20T16:01:52.882Z,93.29
2018-12-20T16:04:20.817Z,93.68
2018-12-20T16:06:48.786Z,93.52
2018-12-20T16:09:17.513Z,93.35
2018-12-20T16:11:46.499Z,93.86
2018-12-20T16:14:14.540Z,94.25
2018-12-20T16:16:42.981Z,94.46
2018-12-20T16:19:10.921Z,94.42
2018-12-20T16:21:38.957Z,94.39
2018-12-20T16:24:07.507Z,94.51
2018-12-20T16:26:35.655Z,94.54
2018-12-20T16:29:03.790Z,94.26
2018-12-20T16:31:31.811Z,94.11
2018-12-20T16:33:59.887Z,94.34
2018-12-20T16:36:27.957Z,94.38
2018-12-20T16:38:56.020Z,94.33
2018-12-20T16:41:24.046Z,93.78
2018-12-20T16:43:52.197Z,94.29
2018-12-20T16:46:20.762Z,94.25
2018-12-20T16:48:49.561Z,94.27
2018-12-20T16:51:18.027Z,94.09
2018-12-20T16:53:47.522Z,93.85
2018-12-20T16:56:15.519Z,94.19
2018-12-20T16:58:44.031Z,94.23
2018-12-20T17:01:12.401Z,94.24
2018-12-20T17:03:40.995Z,93.61
2018-12-20T17:06:09.147Z,93.45
2018-12-20T17:08:37.077Z,93.61
2018-12-20T17:11:05.069Z,93.65
2018-12-20T17:13:33.059Z,93.48
2018-12-20T17:16:01.746Z,93.78
2018-12-20T17:18:29.707Z,93.59
2018-12-20T17:20:57.739Z,93.84
2018-12-20T17:23:25.714Z,93.84
2018-12-20T17:25:53.723Z,93.39
2018-12-20T17:28:21.722Z,93.51
2018-12-20T17:30:49.799Z,93.88
2018-12-20T17:33:18.402Z,94.15
2018-12-20T17:35:46.424Z,94.13
2018-12-20T17:38:14.395Z,94.21
2018-12-20T17:40:42.463Z,94.36
2018-12-20T17:43:10.599Z,94.57
2018-12-20T17:45:38.756Z,94.51
2018-12-20T17:48:06.838Z,94.28
2018-12-20T17:50:34.834Z,94.00
2018-12-20T17:53:03.689Z,94.39
2018-12-20T17:55:32.020Z,94.77
2018-12-20T17:58:00.077Z,94.48
2018-12-20T18:00:28.272Z,94.72
2018-12-20T18:02:56.287Z,95.02
2018-12-20T18:05:24.293Z,95.06
2018-12-20T18:07:54.130Z,94.99
2018-12-20T18:10:22.131Z,94.66
2018-12-20T18:12:50.237Z,94.77
2018-12-20T18:15:19.330Z,95.35
2018-12-20T18:17:47.338Z,95.31
2018-12-20T18:20:15.398Z,95.58
2018-12-20T18:22:43.733Z,95.67
2018-12-20T18:25:11.791Z,95.28
2018-12-20T18:27:40.239Z,94.89
2018-12-20T18:30:10.182Z,94.42
2018-12-20T18:32:38.326Z,93.64
2018-12-20T18:35:06.332Z,94.45
2018-12-20T18:37:34.599Z,94.73
2018-12-20T18:40:02.647Z,95.35
2018-12-20T18:42:30.603Z,95.38
2018-12-20T18:44:58.676Z,95.67
2018-12-20T18:47:26.647Z,96.07
2018-12-20T18:49:54.583Z,96.37
2018-12-20T18:52:22.800Z,96.49
2018-12-20T18:54:50.793Z,96.54
2018-12-20T18:57:18.818Z,96.33
2018-12-20T18:59:47.029Z,96.95
2018-12-20T19:02:15.058Z,97.02
2018-12-20T19:04:43.770Z,97.13
2018-12-20T19:07:11.813Z,97.53
2018-12-20T19:09:39.770Z,97.98
2018-12-20T19:12:07.797Z,97.76
2018-12-20T19:14:35.875Z,97.48
2018-12-20T19:17:03.839Z,97.62
2018-12-20T19:19:32.172Z,97.60
2018-12-20T19:22:00.235Z,97.66
2018-12-20T19:24:28.321Z,97.30
2018-12-20T19:26:56.317Z,97.50
2018-12-20T19:29:25.133Z,97.89
2018-12-20T19:31:53.206Z,97.98
2018-12-20T19:34:21.774Z,97.84
2018-12-20T19:36:49.738Z,97.82
2018-12-20T19:39:20.073Z,97.68
2018-12-20T19:41:48.059Z,97.35
2018-12-20T19:44:16.058Z,97.60
2018-12-20T19:46:44.108Z,97.82
2018-12-20T19:49:12.281Z,97.91
2018-12-20T19:51:40.454Z,98.05
2018-12-20T19:54:08.433Z,98.05
2018-12-20T19:56:36.415Z,97.92
2018-12-20T19:59:05.187Z,97.82
2018-12-20T20:01:33.424Z,98.02
2018-12-20T20:04:01.678Z,98.07
2018-12-20T20:06:29.662Z,97.93
2018-12-20T20:08:57.661Z,97.98
2018-12-20T20:11:25.663Z,98.08
2018-12-20T20:13:53.626Z,98.14
2018-12-20T20:16:21.752Z,98.05
2018-12-20T20:18:49.922Z,98.07
2018-12-20T20:21:17.906Z,97.93
2018-12-20T20:23:45.865Z,97.87
2018-12-20T20:26:13.795Z,98.00
2018-12-20T20:28:41.901Z,98.01
2018-12-20T20:31:09.855Z,97.75
2018-12-20T20:33:37.831Z,98.12
2018-12-20T20:36:05.819Z,98.50
2018-12-20T20:38:33.793Z,98.42
2018-12-20T20:41:01.765Z,98.40
2018-12-20T20:43:29.812Z,98.31
2018-12-20T20:45:57.781Z,98.43
2018-12-20T20:48:25.765Z,98.15
2018-12-20T20:50:56.240Z,97.40
2018-12-20T20:53:24.246Z,96.66
2018-12-20T20:55:52.282Z,96.05
2018-12-20T20:58:20.381Z,95.71
2018-12-20T21:00:48.414Z,95.51
2018-12-20T21:03:16.366Z,94.26
2018-12-20T21:05:44.368Z,93.82
2018-12-20T21:08:12.397Z,93.16
2018-12-20T21:10:40.395Z,93.17
2018-12-20T21:13:08.352Z,93.47
2018-12-20T21:15:36.781Z,93.52
2018-12-20T21:18:04.810Z,94.49
2018-12-20T21:20:32.764Z,93.93
2018-12-20T21:23:00.727Z,94.22
2018-12-20T21:25:28.999Z,94.79
2018-12-20T21:27:56.944Z,95.17
2018-12-20T21:30:24.963Z,95.57
2018-12-20T21:32:53.047Z,95.46
2018-12-20T21:35:21.060Z,95.73
2018-12-20T21:37:49.031Z,96.31
2018-12-20T21:40:18.685Z,96.18
2018-12-20T21:42:47.429Z,96.47
2018-12-20T21:45:15.559Z,96.60
2018-12-20T21:47:43.600Z,96.88
2018-12-20T21:50:11.601Z,97.02
2018-12-20T21:52:39.670Z,97.10
2018-12-20T21:55:07.768Z,97.35
2018-12-20T21:57:35.843Z,97.53
2018-12-20T22:00:05.403Z,97.48
2018-12-20T22:02:33.478Z,97.59
2018-12-20T22:05:01.464Z,97.60
2018-12-20T22:07:29.428Z,97.74
2018-12-20T22:09:57.469Z,97.90
2018-12-20T22:12:25.410Z,98.26
2018-12-20T22:14:53.369Z,98.39
2018-12-20T22:17:21.742Z,98.86
2018-12-20T22:19:49.722Z,98.80
2018-12-20T22:22:17.715Z,98.72
2018-12-20T22:24:45.741Z,98.72
2018-12-20T22:27:13.748Z,98.85
2018-12-20T22:29:41.720Z,98.78
2018-12-20T22:32:09.816Z,98.52
2018-12-20T22:34:37.807Z,98.46
2018-12-20T22:37:05.802Z,98.70
2018-12-20T22:39:34.157Z,98.76
2018-12-20T22:42:02.107Z,98.61
2018-12-20T22:44:30.141Z,98.50
2018-12-20T22:46:58.173Z,98.58
2018-12-20T22:49:26.092Z,98.51
2018-12-20T22:51:54.194Z,98.33
2018-12-20T22:54:22.186Z,98.73
2018-12-20T22:56:50.181Z,98.89
2018-12-20T22:59:18.142Z,98.89
2018-12-20T23:01:46.177Z,99.14
2018-12-20T23:04:14.159Z,99.19
2018-12-20T23:06:42.162Z,99.39
2018-12-20T23:09:10.204Z,99.11
2018-12-20T23:11:38.257Z,99.14
2018-12-20T23:14:07.576Z,99.45
2018-12-20T23:16:35.583Z,99.55
2018-12-20T23:19:03.739Z,99.34
2018-12-20T23:21:31.734Z,99.62
2018-12-20T23:23:59.708Z,99.69
2018-12-20T23:26:27.687Z,99.68
2018-12-20T23:28:55.651Z,99.46
2018-12-20T23:31:24.041Z,99.42
2018-12-20T23:33:51.998Z,99.50
2018-12-20T23:36:20.445Z,99.48
2018-12-20T23:38:48.524Z,99.43
2018-12-20T23:41:17.543Z,99.10
2018-12-20T23:43:45.563Z,99.37
2018-12-20T23:46:13.499Z,99.43
2018-12-20T23:48:41.501Z,99.57
2018-12-20T23:51:13.444Z,99.29
2018-12-20T23:53:39.416Z,99.18
2018-12-20T23:56:07.402Z,99.15
2018-12-20T23:58:35.400Z,99.05
